createdAt,value
2019-01-17T00:01:53.330Z,99340.00
2019-01-17T00:04:33.186Z,99356.00
2019-01-17T00:07:11.327Z,99357.00
2019-01-17T00:10:13.595Z,99354.00
2019-01-17T00:13:16.353Z,99346.00
2019-01-17T00:16:13.019Z,99336.00
2019-01-17T00:18:59.208Z,99322.00
2019-01-17T00:22:04.951Z,99333.00
2019-01-17T00:24:55.636Z,99277.00
2019-01-17T00:27:41.955Z,99343.00
2019-01-17T00:30:45.347Z,99333.00
2019-01-17T00:33:30.483Z,99336.00
2019-01-17T00:36:16.809Z,99340.00
2019-01-17T00:39:02.518Z,99330.00
2019-01-17T00:41:44.676Z,99316.00
2019-01-17T00:44:43.034Z,99339.00
2019-01-17T00:47:24.389Z,99328.00
2019-01-17T00:50:14.968Z,99349.00
2019-01-17T00:53:08.311Z,99342.00
2019-01-17T00:55:50.763Z,99327.00
2019-01-17T00:58:37.714Z,99331.00
2019-01-17T01:01:23.797Z,99334.00
2019-01-17T01:04:14.456Z,99340.00
2019-01-17T01:07:02.319Z,99333.00
2019-01-17T01:09:48.294Z,99351.00
2019-01-17T01:12:44.905Z,99326.00
2019-01-17T01:15:28.951Z,99346.00
2019-01-17T01:18:16.598Z,99340.00
2019-01-17T01:21:04.196Z,99342.00
2019-01-17T01:23:45.227Z,99326.00
2019-01-17T01:26:41.653Z,99329.00
2019-01-17T01:29:27.829Z,99339.00
2019-01-17T01:32:32.986Z,99320.00
2019-01-17T01:35:13.213Z,99342.00
2019-01-17T01:37:59.477Z,99334.00
2019-01-17T01:40:36.879Z,99332.00
2019-01-17T01:43:22.656Z,99341.00
2019-01-17T01:46:08.400Z,99335.00
2019-01-17T01:48:58.680Z,99327.00
2019-01-17T01:51:49.025Z,99329.00
2019-01-17T01:54:22.032Z,99330.00
2019-01-17T01:56:46.901Z,99316.00
2019-01-17T01:59:14.851Z,99319.00
2019-01-17T02:01:42.802Z,99255.00
2019-01-17T02:04:10.718Z,99306.00
2019-01-17T02:06:38.592Z,99310.00
2019-01-17T02:09:07.540Z,99307.00
2019-01-17T02:11:36.673Z,99300.00
2019-01-17T02:14:06.032Z,99297.00
2019-01-17T02:16:33.925Z,99297.00
2019-01-17T02:19:01.863Z,99293.00
2019-01-17T02:21:29.741Z,99289.00
2019-01-17T02:23:57.595Z,99296.00
2019-01-17T02:26:25.550Z,99286.00
2019-01-17T02:28:53.439Z,99286.00
2019-01-17T02:31:21.321Z,99290.00
2019-01-17T02:33:49.213Z,99292.00
2019-01-17T02:36:17.086Z,99308.00
2019-01-17T02:38:44.991Z,99293.00
2019-01-17T02:41:12.874Z,99305.00
2019-01-17T02:43:40.746Z,99310.00
2019-01-17T02:46:08.610Z,99300.00
2019-01-17T02:48:37.698Z,99308.00
2019-01-17T02:51:05.556Z,99299.00
2019-01-17T02:53:33.422Z,99315.00
2019-01-17T02:56:01.291Z,99305.00
2019-01-17T02:58:29.180Z,99297.00
2019-01-17T03:00:57.169Z,99297.00
2019-01-17T03:03:25.022Z,99290.00
2019-01-17T03:05:52.890Z,99308.00
2019-01-17T03:08:20.749Z,99299.00
2019-01-17T03:10:48.638Z,99312.00
2019-01-17T03:13:16.903Z,99289.00
2019-01-17T03:15:44.737Z,99313.00
2019-01-17T03:18:12.622Z,99294.00
2019-01-17T03:20:40.467Z,99297.00
2019-01-17T03:23:08.406Z,99294.00
2019-01-17T03:25:36.276Z,99289.00
2019-01-17T03:28:04.141Z,99279.00
2019-01-17T03:30:32.195Z,99287.00
2019-01-17T03:33:00.155Z,99283.00
2019-01-17T03:35:27.983Z,99287.00
2019-01-17T03:37:55.884Z,99275.00
2019-01-17T03:40:23.795Z,99278.00
2019-01-17T03:42:51.681Z,99281.00
2019-01-17T03:45:19.988Z,99272.00
2019-01-17T03:47:47.896Z,99276.00
2019-01-17T03:50:16.125Z,99269.00
2019-01-17T03:52:44.054Z,99273.00
2019-01-17T03:55:14.692Z,99264.00
2019-01-17T03:57:42.553Z,99276.00
2019-01-17T04:00:19.474Z,99276.00
2019-01-17T04:02:47.349Z,99276.00
2019-01-17T04:05:15.181Z,99268.00
2019-01-17T04:07:43.164Z,99261.00
2019-01-17T04:10:12.244Z,99261.00
2019-01-17T04:12:40.214Z,99275.00
2019-01-17T04:15:08.788Z,99284.00
2019-01-17T04:17:36.650Z,99276.00
2019-01-17T04:20:07.400Z,99267.00
2019-01-17T04:22:35.247Z,99264.00
2019-01-17T04:25:03.972Z,99256.00
2019-01-17T04:27:31.826Z,99263.00
2019-01-17T04:29:59.715Z,99258.00
2019-01-17T04:32:27.642Z,99257.00
2019-01-17T04:34:55.472Z,99247.00
2019-01-17T04:37:24.190Z,99252.00
2019-01-17T04:39:52.078Z,99254.00
2019-01-17T04:42:19.911Z,99263.00
2019-01-17T04:44:47.757Z,99262.00
2019-01-17T04:47:15.603Z,99261.00
2019-01-17T04:49:43.473Z,99261.00
2019-01-17T04:52:11.618Z,99252.00
2019-01-17T04:54:39.584Z,99259.00
2019-01-17T04:57:07.729Z,99243.00
2019-01-17T04:59:35.640Z,99250.00
2019-01-17T05:02:03.899Z,99252.00
2019-01-17T05:04:31.786Z,99241.00
2019-01-17T05:06:59.740Z,99251.00
2019-01-17T05:09:28.373Z,99246.00
2019-01-17T05:11:56.296Z,99238.00
2019-01-17T05:14:24.501Z,99237.00
2019-01-17T05:16:52.384Z,99243.00
2019-01-17T05:19:20.215Z,99252.00
2019-01-17T05:21:48.141Z,99243.00
2019-01-17T05:24:16.076Z,99244.00
2019-01-17T05:26:43.936Z,99241.00
2019-01-17T05:29:11.840Z,99242.00
2019-01-17T05:31:39.732Z,99239.00
2019-01-17T05:34:11.252Z,99238.00
2019-01-17T05:36:39.201Z,99238.00
2019-01-17T05:39:07.387Z,99246.00
2019-01-17T05:41:35.335Z,99249.00
2019-01-17T05:44:03.393Z,99233.00
2019-01-17T05:46:32.046Z,99231.00
2019-01-17T05:49:00.044Z,99243.00
2019-01-17T05:51:28.036Z,99243.00
2019-01-17T05:53:56.965Z,99245.00
2019-01-17T05:56:25.950Z,99244.00
2019-01-17T05:58:53.926Z,99242.00
2019-01-17T06:01:21.827Z,99244.00
2019-01-17T06:03:49.866Z,99246.00
2019-01-17T06:06:17.789Z,99232.00
2019-01-17T06:08:45.650Z,99240.00
2019-01-17T06:11:13.527Z,99244.00
2019-01-17T06:13:41.362Z,99240.00
2019-01-17T06:16:09.295Z,99248.00
2019-01-17T06:18:37.139Z,99238.00
2019-01-17T06:21:05.077Z,99243.00
2019-01-17T06:23:33.072Z,99243.00
2019-01-17T06:26:01.036Z,99240.00
2019-01-17T06:28:28.985Z,99239.00
2019-01-17T06:30:56.923Z,99235.00
2019-01-17T06:33:24.851Z,99233.00
2019-01-17T06:35:52.802Z,99235.00
2019-01-17T06:38:21.009Z,99232.00
2019-01-17T06:40:48.884Z,99236.00
2019-01-17T06:43:16.916Z,99219.00
2019-01-17T06:45:44.898Z,99219.00
2019-01-17T06:48:13.098Z,99220.00
2019-01-17T06:50:41.052Z,99229.00
2019-01-17T06:53:08.919Z,99225.00
2019-01-17T06:55:36.876Z,99220.00
2019-01-17T06:58:04.858Z,99222.00
2019-01-17T07:00:32.954Z,99223.00
2019-01-17T07:03:00.984Z,99224.00
2019-01-17T07:05:28.936Z,99227.00
2019-01-17T07:07:56.827Z,99229.00
2019-01-17T07:10:24.689Z,99219.00
2019-01-17T07:12:52.599Z,99217.00
2019-01-17T07:15:20.518Z,99221.00
2019-01-17T07:17:48.546Z,99213.00
2019-01-17T07:20:16.663Z,99217.00
2019-01-17T07:22:44.624Z,99214.00
2019-01-17T07:25:12.587Z,99222.00
2019-01-17T07:27:40.490Z,99226.00
2019-01-17T07:30:16.527Z,99214.00
2019-01-17T07:32:44.504Z,99215.00
2019-01-17T07:35:12.476Z,99206.00
2019-01-17T07:37:41.374Z,99207.00
2019-01-17T07:40:09.652Z,99220.00
2019-01-17T07:42:37.696Z,99205.00
2019-01-17T07:45:10.358Z,99209.00
2019-01-17T07:47:38.281Z,99206.00
2019-01-17T07:50:07.201Z,99202.00
2019-01-17T07:52:35.138Z,99212.00
2019-01-17T07:55:03.578Z,99207.00
2019-01-17T07:57:32.311Z,99210.00
2019-01-17T08:00:00.480Z,99222.00
2019-01-17T08:02:28.439Z,99227.00
2019-01-17T08:04:56.322Z,99234.00
2019-01-17T08:07:24.203Z,99242.00
2019-01-17T08:09:52.132Z,99232.00
2019-01-17T08:12:20.028Z,99220.00
2019-01-17T08:14:47.984Z,99217.00
2019-01-17T08:17:17.025Z,99230.00
2019-01-17T08:19:45.015Z,99239.00
2019-01-17T08:22:12.916Z,99232.00
2019-01-17T08:24:41.834Z,99240.00
2019-01-17T08:27:09.721Z,99225.00
2019-01-17T08:29:37.628Z,99227.00
2019-01-17T08:32:05.529Z,99232.00
2019-01-17T08:34:33.409Z,99219.00
2019-01-17T08:37:01.346Z,99215.00
2019-01-17T08:39:29.268Z,99224.00
2019-01-17T08:41:57.249Z,99230.00
2019-01-17T08:44:26.276Z,99241.00
2019-01-17T08:46:54.197Z,99188.00
2019-01-17T08:49:22.170Z,99254.00
2019-01-17T08:51:50.091Z,99269.00
2019-01-17T08:54:17.999Z,99258.00
2019-01-17T08:56:45.909Z,99259.00
2019-01-17T08:59:13.856Z,99245.00
2019-01-17T09:01:42.737Z,99253.00
2019-01-17T09:04:10.734Z,99249.00
2019-01-17T09:06:38.603Z,99238.00
2019-01-17T09:09:08.749Z,99249.00
2019-01-17T09:11:36.638Z,99249.00
2019-01-17T09:14:04.699Z,99250.00
2019-01-17T09:16:32.672Z,99245.00
2019-01-17T09:19:00.680Z,99252.00
2019-01-17T09:21:28.586Z,99247.00
2019-01-17T09:23:56.576Z,99250.00
2019-01-17T09:26:25.524Z,99257.00
2019-01-17T09:28:53.615Z,99261.00
2019-01-17T09:31:21.477Z,99259.00
2019-01-17T09:33:49.586Z,99251.00
2019-01-17T09:36:17.527Z,99261.00
2019-01-17T09:38:45.571Z,99263.00
2019-01-17T09:41:13.520Z,99273.00
2019-01-17T09:43:41.398Z,99268.00
2019-01-17T09:46:09.335Z,99264.00
2019-01-17T09:48:38.095Z,99254.00
2019-01-17T09:51:06.022Z,99258.00
2019-01-17T09:53:34.059Z,99257.00
2019-01-17T09:56:02.000Z,99257.00
2019-01-17T09:58:31.237Z,99252.00
2019-01-17T10:00:59.137Z,99261.00
2019-01-17T10:03:27.058Z,99264.00
2019-01-17T10:05:55.101Z,99267.00
2019-01-17T10:08:23.726Z,99285.00
2019-01-17T10:10:55.558Z,99271.00
2019-01-17T10:13:23.569Z,99277.00
2019-01-17T10:16:54.143Z,99272.00
2019-01-17T10:20:20.663Z,99271.00
2019-01-17T10:23:54.237Z,99274.00
2019-01-17T10:27:08.918Z,99271.00
2019-01-17T10:30:53.898Z,99278.00
2019-01-17T10:33:42.408Z,99262.00
2019-01-17T10:37:22.754Z,99263.00
2019-01-17T10:40:39.424Z,99257.00
2019-01-17T10:44:01.752Z,99264.00
2019-01-17T10:47:27.851Z,99253.00
2019-01-17T10:50:56.684Z,99253.00
2019-01-17T10:54:05.679Z,99256.00
2019-01-17T10:57:10.648Z,99193.00
2019-01-17T11:00:27.350Z,99246.00
2019-01-17T11:04:03.410Z,99236.00
2019-01-17T11:07:21.336Z,99240.00
2019-01-17T11:10:16.781Z,99224.00
2019-01-17T11:13:21.722Z,99227.00
2019-01-17T11:16:45.505Z,99215.00
2019-01-17T11:20:01.891Z,99212.00
2019-01-17T11:23:28.351Z,99206.00
2019-01-17T11:27:02.254Z,99204.00
2019-01-17T11:30:15.572Z,99188.00
2019-01-17T11:33:40.070Z,99187.00
2019-01-17T11:36:58.712Z,99196.00
2019-01-17T11:40:32.739Z,99174.00
2019-01-17T11:43:43.895Z,99181.00
2019-01-17T11:47:15.525Z,99178.00
2019-01-17T11:50:55.328Z,99168.00
2019-01-17T11:54:23.368Z,99153.00
2019-01-17T11:58:11.933Z,99175.00
2019-01-17T12:00:53.770Z,99161.00
2019-01-17T12:03:53.203Z,99151.00
2019-01-17T12:06:21.368Z,99145.00
2019-01-17T12:08:49.465Z,99143.00
2019-01-17T12:11:17.593Z,99137.00
2019-01-17T12:13:46.866Z,99152.00
2019-01-17T12:16:14.949Z,99137.00
2019-01-17T12:18:45.695Z,99142.00
2019-01-17T12:21:13.615Z,99140.00
2019-01-17T12:23:41.651Z,99137.00
2019-01-17T12:26:09.567Z,99136.00
2019-01-17T12:28:37.501Z,99134.00
2019-01-17T12:31:05.603Z,99135.00
2019-01-17T12:33:33.705Z,99137.00
2019-01-17T12:36:01.639Z,99122.00
2019-01-17T12:38:29.644Z,99138.00
2019-01-17T12:40:57.665Z,99135.00
2019-01-17T12:43:25.649Z,99132.00
2019-01-17T12:45:53.780Z,99121.00
2019-01-17T12:48:21.641Z,99092.00
2019-01-17T12:50:49.788Z,99118.00
2019-01-17T12:53:17.869Z,99104.00
2019-01-17T12:55:45.956Z,99099.00
2019-01-17T12:58:14.544Z,99098.00
2019-01-17T13:00:42.535Z,99097.00
2019-01-17T13:03:10.498Z,99098.00
2019-01-17T13:05:38.824Z,99112.00
2019-01-17T13:08:06.731Z,99099.00
2019-01-17T13:10:34.822Z,99110.00
2019-01-17T13:13:02.808Z,99116.00
2019-01-17T13:15:30.745Z,99109.00
2019-01-17T13:17:58.671Z,99107.00
2019-01-17T13:20:26.801Z,99114.00
2019-01-17T13:22:54.705Z,99127.00
2019-01-17T13:25:22.689Z,99129.00
2019-01-17T13:27:50.721Z,99137.00
2019-01-17T13:30:21.119Z,99127.00
2019-01-17T13:32:49.114Z,99119.00
2019-01-17T13:35:17.290Z,99136.00
2019-01-17T13:37:45.465Z,99123.00
2019-01-17T13:40:17.650Z,99111.00
2019-01-17T13:42:45.700Z,99119.00
2019-01-17T13:45:15.559Z,99121.00
2019-01-17T13:47:43.550Z,99137.00
2019-01-17T13:50:11.642Z,99123.00
2019-01-17T13:52:39.558Z,99133.00
2019-01-17T13:55:07.967Z,99133.00
2019-01-17T13:57:35.913Z,99124.00
2019-01-17T14:00:09.691Z,99114.00
2019-01-17T14:02:37.624Z,99121.00
2019-01-17T14:05:05.952Z,99108.00
2019-01-17T14:07:33.997Z,99094.00
2019-01-17T14:10:02.038Z,99126.00
2019-01-17T14:12:30.031Z,99110.00
2019-01-17T14:14:57.956Z,99105.00
2019-01-17T14:17:25.928Z,99101.00
2019-01-17T14:19:54.168Z,99104.00
2019-01-17T14:22:22.255Z,99113.00
2019-01-17T14:24:50.268Z,99121.00
2019-01-17T14:27:18.219Z,99132.00
2019-01-17T14:29:47.112Z,99122.00
2019-01-17T14:32:15.155Z,99128.00
2019-01-17T14:34:43.101Z,99140.00
2019-01-17T14:37:12.039Z,99140.00
2019-01-17T14:39:40.022Z,99144.00
2019-01-17T14:42:07.960Z,99140.00
2019-01-17T14:44:37.084Z,99136.00
2019-01-17T14:47:05.035Z,99130.00
2019-01-17T14:49:34.008Z,99127.00
2019-01-17T14:52:02.078Z,99129.00
2019-01-17T14:54:30.112Z,99128.00
2019-01-17T14:56:58.144Z,99125.00
2019-01-17T14:59:26.256Z,99142.00
2019-01-17T15:01:55.793Z,99152.00
2019-01-17T15:04:23.892Z,99190.00
2019-01-17T15:06:52.001Z,99236.00
2019-01-17T15:09:19.996Z,99213.00
2019-01-17T15:11:47.989Z,99256.00
2019-01-17T15:14:15.912Z,99274.00
2019-01-17T15:16:43.915Z,99260.00
2019-01-17T15:19:11.907Z,99262.00
2019-01-17T15:21:39.885Z,99269.00
2019-01-17T15:24:07.807Z,99262.00
2019-01-17T15:26:35.861Z,99266.00
2019-01-17T15:29:03.809Z,99254.00
2019-01-17T15:31:31.767Z,99266.00
2019-01-17T15:33:59.741Z,99276.00
2019-01-17T15:36:28.105Z,99284.00
2019-01-17T15:38:56.083Z,99291.00
2019-01-17T15:41:28.540Z,99299.00
2019-01-17T15:43:53.922Z,99308.00
2019-01-17T15:46:22.736Z,99316.00
2019-01-17T15:48:50.681Z,99339.00
2019-01-17T15:51:22.850Z,99338.00
2019-01-17T15:53:50.950Z,99326.00
2019-01-17T15:56:19.939Z,99335.00
2019-01-17T15:58:48.270Z,99342.00
2019-01-17T16:01:16.254Z,99349.00
2019-01-17T16:03:44.200Z,99353.00
2019-01-17T16:06:12.413Z,99360.00
2019-01-17T16:08:41.100Z,99364.00
2019-01-17T16:11:09.174Z,99357.00
2019-01-17T16:13:37.296Z,99371.00
2019-01-17T16:16:05.460Z,99368.00
2019-01-17T16:18:33.385Z,99371.00
2019-01-17T16:21:01.670Z,99380.00
2019-01-17T16:23:29.823Z,99375.00
2019-01-17T16:25:57.891Z,99398.00
2019-01-17T16:28:25.789Z,99400.00
2019-01-17T16:30:53.851Z,99361.00
2019-01-17T16:33:21.903Z,99397.00
2019-01-17T16:35:49.855Z,99407.00
2019-01-17T16:38:18.867Z,99414.00
2019-01-17T16:40:46.917Z,99420.00
2019-01-17T16:43:15.041Z,99422.00
2019-01-17T16:45:42.933Z,99425.00
2019-01-17T16:48:11.291Z,99438.00
2019-01-17T16:50:39.283Z,99447.00
2019-01-17T16:53:07.340Z,99453.00
2019-01-17T16:55:35.279Z,99451.00
2019-01-17T16:58:04.219Z,99463.00
2019-01-17T17:00:44.677Z,99462.00
2019-01-17T17:03:12.608Z,99463.00
2019-01-17T17:05:40.569Z,99470.00
2019-01-17T17:08:09.015Z,99474.00
2019-01-17T17:10:36.981Z,99496.00
2019-01-17T17:13:05.020Z,99494.00
2019-01-17T17:15:33.044Z,99487.00
2019-01-17T17:18:00.966Z,99498.00
2019-01-17T17:20:29.054Z,99489.00
2019-01-17T17:22:57.135Z,99507.00
2019-01-17T17:25:25.231Z,99509.00
2019-01-17T17:27:55.730Z,99520.00
2019-01-17T17:30:25.681Z,99515.00
2019-01-17T17:32:53.771Z,99531.00
2019-01-17T17:35:22.912Z,99532.00
2019-01-17T17:37:50.844Z,99542.00
2019-01-17T17:40:27.712Z,99543.00
2019-01-17T17:42:55.668Z,99555.00
2019-01-17T17:45:24.828Z,99561.00
2019-01-17T17:47:53.851Z,99572.00
2019-01-17T17:50:22.958Z,99579.00
2019-01-17T17:52:50.887Z,99574.00
2019-01-17T17:55:19.507Z,99569.00
2019-01-17T17:57:47.766Z,99571.00
2019-01-17T18:00:24.148Z,99583.00
2019-01-17T18:02:52.867Z,99586.00
2019-01-17T18:05:21.615Z,99600.00
2019-01-17T18:07:49.634Z,99606.00
2019-01-17T18:10:17.974Z,99622.00
2019-01-17T18:12:46.073Z,99613.00
2019-01-17T18:15:14.589Z,99612.00
2019-01-17T18:17:42.622Z,99620.00
2019-01-17T18:20:11.748Z,99623.00
2019-01-17T18:22:41.125Z,99634.00
2019-01-17T18:25:09.177Z,99628.00
2019-01-17T18:27:37.384Z,99619.00
2019-01-17T18:30:13.289Z,99624.00
2019-01-17T18:32:41.300Z,99626.00
2019-01-17T18:35:09.533Z,99623.00
2019-01-17T18:37:37.584Z,99652.00
2019-01-17T18:40:09.046Z,99641.00
2019-01-17T18:42:36.987Z,99641.00
2019-01-17T18:45:07.652Z,99653.00
2019-01-17T18:47:35.712Z,99666.00
2019-01-17T18:50:05.093Z,99670.00
2019-01-17T18:52:33.112Z,99661.00
2019-01-17T18:55:01.072Z,99672.00
2019-01-17T18:57:30.287Z,99689.00
2019-01-17T18:59:58.338Z,99677.00
2019-01-17T19:02:26.248Z,99683.00
2019-01-17T19:04:54.215Z,99701.00
2019-01-17T19:07:22.149Z,99700.00
2019-01-17T19:09:50.087Z,99700.00
2019-01-17T19:12:18.074Z,99703.00
2019-01-17T19:14:46.191Z,99729.00
2019-01-17T19:17:17.008Z,99717.00
2019-01-17T19:19:44.997Z,99726.00
2019-01-17T19:22:13.045Z,99735.00
2019-01-17T19:24:41.020Z,99727.00
2019-01-17T19:27:08.984Z,99748.00
2019-01-17T19:29:37.028Z,99747.00
2019-01-17T19:32:05.121Z,99748.00
2019-01-17T19:34:33.055Z,99742.00
2019-01-17T19:37:01.063Z,99755.00
2019-01-17T19:39:29.248Z,99751.00
2019-01-17T19:41:57.410Z,99764.00
2019-01-17T19:44:25.644Z,99767.00
2019-01-17T19:46:53.661Z,99767.00
2019-01-17T19:49:21.673Z,99766.00
2019-01-17T19:51:49.787Z,99762.00
2019-01-17T19:54:17.789Z,99765.00
2019-01-17T19:56:45.908Z,99759.00
2019-01-17T19:59:13.930Z,99759.00
2019-01-17T20:01:42.260Z,99752.00
2019-01-17T20:04:10.717Z,99759.00
2019-01-17T20:06:38.735Z,99768.00
2019-01-17T20:09:10.790Z,99762.00
2019-01-17T20:11:38.894Z,99767.00
2019-01-17T20:14:06.940Z,99778.00
2019-01-17T20:16:35.132Z,99774.00
2019-01-17T20:19:03.824Z,99782.00
2019-01-17T20:21:31.842Z,99779.00
2019-01-17T20:23:59.873Z,99773.00
2019-01-17T20:26:27.983Z,99774.00
2019-01-17T20:28:56.008Z,99782.00
2019-01-17T20:31:24.089Z,99774.00
2019-01-17T20:33:52.286Z,99784.00
2019-01-17T20:36:20.447Z,99783.00
2019-01-17T20:38:48.506Z,99786.00
2019-01-17T20:41:16.629Z,99798.00
2019-01-17T20:43:44.720Z,99791.00
2019-01-17T20:46:12.858Z,99805.00
2019-01-17T20:48:41.012Z,99803.00
2019-01-17T20:51:09.159Z,99802.00
2019-01-17T20:53:38.014Z,99812.00
2019-01-17T20:56:06.068Z,99826.00
2019-01-17T20:58:34.172Z,99826.00
2019-01-17T21:02:09.832Z,99832.00
2019-01-17T21:04:37.799Z,99836.00
2019-01-17T21:07:06.016Z,99837.00
2019-01-17T21:09:34.164Z,99843.00
2019-01-17T21:12:02.199Z,99852.00
2019-01-17T21:14:30.287Z,99862.00
2019-01-17T21:16:58.388Z,99858.00
2019-01-17T21:19:26.471Z,99875.00
2019-01-17T21:21:54.671Z,99875.00
2019-01-17T21:24:22.828Z,99884.00
2019-01-17T21:26:50.835Z,99886.00
2019-01-17T21:29:18.921Z,99881.00
2019-01-17T21:31:47.016Z,99889.00
2019-01-17T21:34:15.080Z,99892.00
2019-01-17T21:36:43.201Z,99899.00
2019-01-17T21:39:11.343Z,99903.00
2019-01-17T21:41:39.344Z,99900.00
2019-01-17T21:44:07.368Z,99905.00
2019-01-17T21:46:35.432Z,99904.00
2019-01-17T21:49:03.739Z,99911.00
2019-01-17T21:51:31.801Z,99909.00
2019-01-17T21:54:00.069Z,99913.00
2019-01-17T21:56:28.101Z,99917.00
2019-01-17T21:58:56.213Z,99923.00
2019-01-17T22:01:24.264Z,99922.00
2019-01-17T22:03:52.461Z,99939.00
2019-01-17T22:06:20.442Z,99938.00
2019-01-17T22:08:48.479Z,99943.00
2019-01-17T22:11:16.759Z,99936.00
2019-01-17T22:13:44.772Z,99945.00
2019-01-17T22:16:12.787Z,99949.00
2019-01-17T22:18:40.785Z,99950.00
2019-01-17T22:21:08.751Z,99956.00
2019-01-17T22:23:36.786Z,99945.00
2019-01-17T22:26:04.739Z,99950.00
2019-01-17T22:28:32.748Z,99953.00
2019-01-17T22:31:00.753Z,99963.00
2019-01-17T22:33:28.761Z,99955.00
2019-01-17T22:35:57.736Z,99959.00
2019-01-17T22:38:25.639Z,99969.00
2019-01-17T22:40:53.726Z,99980.00
2019-01-17T22:43:21.701Z,99996.00
2019-01-17T22:45:49.760Z,100001.00
2019-01-17T22:48:17.996Z,99999.00
2019-01-17T22:50:46.024Z,100012.00
2019-01-17T22:53:14.058Z,100013.00
2019-01-17T22:55:42.055Z,100020.00
2019-01-17T22:58:09.945Z,100017.00
2019-01-17T23:01:08.718Z,100024.00
2019-01-17T23:03:42.859Z,100024.00
2019-01-17T23:06:10.750Z,100022.00
2019-01-17T23:08:39.687Z,100020.00
2019-01-17T23:11:07.888Z,100025.00
2019-01-17T23:13:36.252Z,100030.00
2019-01-17T23:16:05.304Z,100027.00
2019-01-17T23:18:33.231Z,100034.00
2019-01-17T23:21:01.287Z,100030.00
2019-01-17T23:23:29.196Z,100030.00
2019-01-17T23:25:57.430Z,100047.00
2019-01-17T23:28:25.541Z,100039.00
2019-01-17T23:30:53.666Z,100034.00
2019-01-17T23:33:21.889Z,100058.00
2019-01-17T23:35:50.191Z,100049.00
2019-01-17T23:38:18.183Z,100046.00
2019-01-17T23:40:46.103Z,100067.00
2019-01-17T23:43:14.034Z,100063.00
2019-01-17T23:45:42.039Z,100083.00
2019-01-17T23:48:09.996Z,100089.00
2019-01-17T23:50:37.966Z,100093.00
2019-01-17T23:53:05.922Z,100086.00
2019-01-17T23:55:34.000Z,100070.00
2019-01-17T23:58:03.503Z,100074.00
